createdAt,value
2018-11-14T00:00:55.614Z,25.60
2018-11-14T00:01:55.591Z,22.80
2018-11-14T00:02:55.555Z,23.70
2018-11-14T00:03:55.523Z,23.20
2018-11-14T00:04:55.500Z,24.80
2018-11-14T00:05:55.465Z,22.90
2018-11-14T00:06:55.435Z,20.40
2018-11-14T00:07:55.405Z,22.40
2018-11-14T00:08:55.376Z,21.50
2018-11-14T00:09:55.348Z,26.20
2018-11-14T00:10:55.326Z,24.80
2018-11-14T00:11:55.293Z,20.50
2018-11-14T00:12:55.260Z,19.00
2018-11-14T00:13:55.230Z,20.50
2018-11-14T00:14:55.201Z,23.80
2018-11-14T00:15:55.194Z,22.80
2018-11-14T00:16:55.141Z,21.90
2018-11-14T00:17:55.115Z,20.70
2018-11-14T00:18:55.083Z,18.80
2018-11-14T00:19:55.278Z,19.80
2018-11-14T00:20:55.025Z,25.90
2018-11-14T00:21:54.995Z,25.40
2018-11-14T00:22:54.989Z,19.10
2018-11-14T00:23:55.387Z,20.40
2018-11-14T00:24:55.052Z,24.40
2018-11-14T00:25:54.879Z,20.10
2018-11-14T00:26:54.849Z,23.30
2018-11-14T00:27:54.856Z,21.30
2018-11-14T00:28:54.790Z,21.80
2018-11-14T00:29:54.764Z,21.00
2018-11-14T00:30:54.732Z,23.00
2018-11-14T00:31:54.703Z,26.60
2018-11-14T00:32:54.696Z,21.60
2018-11-14T00:33:54.652Z,28.70
2018-11-14T00:34:54.725Z,30.20
2018-11-14T00:35:54.586Z,26.70
2018-11-14T00:36:54.556Z,32.50
2018-11-14T00:37:54.526Z,25.40
2018-11-14T00:38:54.500Z,22.40
2018-11-14T00:39:54.469Z,24.30
2018-11-14T00:40:54.438Z,24.70
2018-11-14T00:41:54.413Z,28.60
2018-11-14T00:42:54.382Z,26.10
2018-11-14T00:43:54.350Z,23.40
2018-11-14T00:44:54.322Z,33.20
2018-11-14T00:45:54.294Z,28.70
2018-11-14T00:46:54.263Z,27.20
2018-11-14T00:47:54.233Z,26.30
2018-11-14T00:48:54.204Z,18.40
2018-11-14T00:49:54.174Z,28.90
2018-11-14T00:50:54.147Z,23.50
2018-11-14T00:51:54.116Z,25.90
2018-11-14T00:52:54.087Z,30.30
2018-11-14T00:53:54.057Z,24.90
2018-11-14T00:54:54.028Z,19.90
2018-11-14T00:55:54.035Z,26.80
2018-11-14T00:56:53.970Z,17.90
2018-11-14T00:57:53.939Z,30.60
2018-11-14T00:58:53.911Z,23.30
2018-11-14T00:59:53.938Z,21.90
2018-11-14T01:00:53.860Z,22.90
2018-11-14T01:01:53.822Z,26.20
2018-11-14T01:02:53.792Z,21.00
2018-11-14T01:03:53.786Z,25.80
2018-11-14T01:04:53.733Z,24.70
2018-11-14T01:05:53.705Z,23.50
2018-11-14T01:06:53.679Z,25.00
2018-11-14T01:07:53.645Z,20.80
2018-11-14T01:08:53.615Z,28.20
2018-11-14T01:09:54.101Z,25.70
2018-11-14T01:10:53.561Z,32.90
2018-11-14T01:11:53.534Z,27.80
2018-11-14T01:12:53.516Z,27.40
2018-11-14T01:13:53.468Z,23.80
2018-11-14T01:14:53.440Z,29.60
2018-11-14T01:15:53.409Z,24.50
2018-11-14T01:16:53.380Z,22.10
2018-11-14T01:17:53.351Z,26.70
2018-11-14T01:18:53.326Z,28.70
2018-11-14T01:19:53.318Z,24.70
2018-11-14T01:20:53.263Z,33.00
2018-11-14T01:21:53.234Z,26.60
2018-11-14T01:22:53.204Z,23.60
2018-11-14T01:23:53.177Z,26.70
2018-11-14T01:24:53.145Z,22.80
2018-11-14T01:25:53.116Z,32.40
2018-11-14T01:26:53.099Z,28.70
2018-11-14T01:27:53.055Z,35.40
2018-11-14T01:28:53.048Z,26.90
2018-11-14T01:29:52.998Z,34.00
2018-11-14T01:30:52.970Z,26.70
2018-11-14T01:31:52.943Z,34.20
2018-11-14T01:32:52.910Z,24.30
2018-11-14T01:33:52.897Z,23.60
2018-11-14T01:34:52.850Z,30.30
2018-11-14T01:35:52.842Z,26.70
2018-11-14T01:36:52.792Z,27.60
2018-11-14T01:37:52.766Z,29.90
2018-11-14T01:38:52.752Z,25.70
2018-11-14T01:39:52.703Z,32.60
2018-11-14T01:40:52.673Z,28.00
2018-11-14T01:41:52.645Z,26.90
2018-11-14T01:42:52.627Z,25.00
2018-11-14T01:43:52.585Z,23.20
2018-11-14T01:44:52.556Z,25.90
2018-11-14T01:45:52.529Z,25.50
2018-11-14T01:46:52.497Z,28.00
2018-11-14T01:47:52.472Z,27.30
2018-11-14T01:48:52.438Z,32.00
2018-11-14T01:49:52.409Z,24.50
2018-11-14T01:50:52.381Z,24.70
2018-11-14T01:51:52.349Z,29.20
2018-11-14T01:52:52.320Z,25.90
2018-11-14T01:53:52.293Z,30.50
2018-11-14T01:54:52.263Z,31.30
2018-11-14T01:55:52.232Z,23.10
2018-11-14T01:56:52.201Z,27.10
2018-11-14T01:57:52.179Z,37.50
2018-11-14T01:58:52.145Z,38.40
2018-11-14T01:59:52.113Z,32.60
2018-11-14T02:00:52.084Z,32.30
2018-11-14T02:01:52.054Z,26.00
2018-11-14T02:02:52.025Z,22.70
2018-11-14T02:03:51.995Z,28.70
2018-11-14T02:04:51.965Z,26.00
2018-11-14T02:05:51.938Z,36.70
2018-11-14T02:06:51.913Z,28.40
2018-11-14T02:07:51.878Z,31.20
2018-11-14T02:08:51.848Z,34.30
2018-11-14T02:09:51.827Z,36.90
2018-11-14T02:10:51.791Z,30.90
2018-11-14T02:11:51.760Z,42.10
2018-11-14T02:12:51.729Z,37.80
2018-11-14T02:13:51.700Z,40.20
2018-11-14T02:14:51.671Z,32.60
2018-11-14T02:15:51.641Z,35.10
2018-11-14T02:16:51.611Z,37.90
2018-11-14T02:17:51.583Z,30.50
2018-11-14T02:18:51.558Z,27.00
2018-11-14T02:19:51.527Z,30.70
2018-11-14T02:20:51.492Z,21.90
2018-11-14T02:21:51.470Z,27.40
2018-11-14T02:22:51.434Z,36.00
2018-11-14T02:23:51.403Z,31.60
2018-11-14T02:24:51.379Z,38.00
2018-11-14T02:25:51.344Z,35.90
2018-11-14T02:26:51.318Z,29.20
2018-11-14T02:27:51.285Z,32.20
2018-11-14T02:28:51.258Z,26.50
2018-11-14T02:29:51.228Z,39.50
2018-11-14T02:30:51.199Z,34.10
2018-11-14T02:31:51.165Z,44.70
2018-11-14T02:32:51.136Z,36.90
2018-11-14T02:33:51.116Z,33.00
2018-11-14T02:34:51.127Z,37.70
2018-11-14T02:35:51.076Z,45.20
2018-11-14T02:36:51.018Z,44.30
2018-11-14T02:37:50.989Z,39.40
2018-11-14T02:38:50.978Z,40.80
2018-11-14T02:39:50.928Z,33.40
2018-11-14T02:40:50.899Z,39.40
2018-11-14T02:41:50.874Z,44.80
2018-11-14T02:42:50.849Z,36.10
2018-11-14T02:43:50.809Z,48.10
2018-11-14T02:44:50.785Z,46.60
2018-11-14T02:45:50.751Z,43.50
2018-11-14T02:46:50.726Z,45.90
2018-11-14T02:47:50.689Z,47.90
2018-11-14T02:48:50.661Z,43.00
2018-11-14T02:49:50.631Z,45.00
2018-11-14T02:50:50.602Z,46.90
2018-11-14T02:51:50.577Z,45.40
2018-11-14T02:52:50.542Z,47.60
2018-11-14T02:53:50.514Z,46.50
2018-11-14T02:54:50.483Z,53.60
2018-11-14T02:55:50.452Z,32.20
2018-11-14T02:56:50.429Z,46.30
2018-11-14T02:57:50.394Z,52.80
2018-11-14T02:58:50.364Z,42.70
2018-11-14T02:59:50.337Z,50.70
2018-11-14T03:00:50.304Z,55.00
2018-11-14T03:01:50.280Z,60.50
2018-11-14T03:02:50.246Z,46.70
2018-11-14T03:03:50.214Z,51.40
2018-11-14T03:04:50.185Z,47.50
2018-11-14T03:05:50.155Z,47.90
2018-11-14T03:06:50.133Z,56.90
2018-11-14T03:07:50.095Z,50.00
2018-11-14T03:08:50.068Z,57.50
2018-11-14T03:09:50.037Z,53.30
2018-11-14T03:10:50.009Z,49.60
2018-11-14T03:11:49.975Z,51.30
2018-11-14T03:12:49.945Z,58.90
2018-11-14T03:13:49.916Z,48.00
2018-11-14T03:14:49.889Z,47.70
2018-11-14T03:15:49.860Z,50.80
2018-11-14T03:16:49.826Z,47.10
2018-11-14T03:17:49.798Z,32.80
2018-11-14T03:18:49.767Z,34.90
2018-11-14T03:19:49.738Z,47.20
2018-11-14T03:20:49.708Z,40.50
2018-11-14T03:21:49.678Z,41.20
2018-11-14T03:22:49.660Z,43.20
2018-11-14T03:23:49.617Z,48.50
2018-11-14T03:24:49.588Z,48.80
2018-11-14T03:25:49.562Z,41.80
2018-11-14T03:26:49.529Z,52.90
2018-11-14T03:27:49.510Z,40.80
2018-11-14T03:28:49.470Z,50.30
2018-11-14T03:29:49.438Z,53.60
2018-11-14T03:30:49.408Z,53.80
2018-11-14T03:31:49.400Z,48.90
2018-11-14T03:32:49.351Z,55.20
2018-11-14T03:33:49.319Z,53.50
2018-11-14T03:34:49.492Z,45.60
2018-11-14T03:35:49.259Z,51.40
2018-11-14T03:36:49.228Z,53.40
2018-11-14T03:37:49.199Z,48.80
2018-11-14T03:38:49.168Z,53.20
2018-11-14T03:39:49.138Z,44.50
2018-11-14T03:40:49.112Z,54.00
2018-11-14T03:41:49.079Z,48.30
2018-11-14T03:42:49.058Z,38.00
2018-11-14T03:43:49.020Z,51.00
2018-11-14T03:44:48.990Z,50.80
2018-11-14T03:45:48.968Z,49.70
2018-11-14T03:46:48.929Z,51.40
2018-11-14T03:47:48.900Z,58.80
2018-11-14T03:48:48.875Z,49.50
2018-11-14T03:49:48.846Z,54.10
2018-11-14T03:50:48.812Z,53.70
2018-11-14T03:51:48.781Z,47.00
2018-11-14T03:52:48.752Z,58.60
2018-11-14T03:53:48.722Z,58.20
2018-11-14T03:54:48.693Z,52.20
2018-11-14T03:55:48.661Z,52.10
2018-11-14T03:56:48.645Z,69.90
2018-11-14T03:57:48.601Z,64.40
2018-11-14T03:58:48.576Z,68.30
2018-11-14T03:59:48.542Z,57.40
2018-11-14T04:00:48.514Z,68.10
2018-11-14T04:01:48.486Z,63.70
2018-11-14T04:02:48.456Z,59.50
2018-11-14T04:03:48.423Z,68.40
2018-11-14T04:04:48.392Z,69.40
2018-11-14T04:05:48.614Z,81.20
2018-11-14T04:06:48.335Z,68.70
2018-11-14T04:07:48.302Z,70.00
2018-11-14T04:08:48.273Z,61.10
2018-11-14T04:09:48.244Z,48.60
2018-11-14T04:10:48.215Z,71.00
2018-11-14T04:11:48.191Z,72.50
2018-11-14T04:12:48.153Z,62.80
2018-11-14T04:13:48.126Z,74.70
2018-11-14T04:14:48.095Z,78.30
2018-11-14T04:15:48.064Z,70.60
2018-11-14T04:16:48.034Z,69.50
2018-11-14T04:17:48.004Z,70.20
2018-11-14T04:18:47.976Z,78.20
2018-11-14T04:19:47.945Z,76.60
2018-11-14T04:20:47.918Z,72.10
2018-11-14T04:21:47.887Z,75.20
2018-11-14T04:22:47.855Z,80.30
2018-11-14T04:23:47.825Z,87.60
2018-11-14T04:24:47.795Z,83.70
2018-11-14T04:25:47.765Z,79.90
2018-11-14T04:26:47.736Z,78.10
2018-11-14T04:27:47.812Z,75.90
2018-11-14T04:28:47.678Z,91.40
2018-11-14T04:29:47.647Z,72.00
2018-11-14T04:30:47.617Z,88.90
2018-11-14T04:31:47.585Z,89.40
2018-11-14T04:32:47.559Z,85.60
2018-11-14T04:33:47.530Z,82.80
2018-11-14T04:34:47.501Z,83.70
2018-11-14T04:35:47.470Z,75.70
2018-11-14T04:36:47.436Z,84.70
2018-11-14T04:37:47.410Z,85.40
2018-11-14T04:38:47.385Z,86.20
2018-11-14T04:39:47.346Z,92.80
2018-11-14T04:40:47.324Z,93.60
2018-11-14T04:41:47.288Z,94.60
2018-11-14T04:42:47.275Z,78.60
2018-11-14T04:43:47.230Z,71.10
2018-11-14T04:44:47.198Z,79.80
2018-11-14T04:45:47.171Z,65.60
2018-11-14T04:46:47.139Z,90.90
2018-11-14T04:47:47.119Z,97.70
2018-11-14T04:48:47.082Z,73.80
2018-11-14T04:49:47.060Z,85.70
2018-11-14T04:50:47.020Z,100.30
2018-11-14T04:51:46.990Z,93.90
2018-11-14T04:52:46.959Z,80.50
2018-11-14T04:53:46.931Z,74.80
2018-11-14T04:54:46.903Z,98.20
2018-11-14T04:55:46.871Z,83.60
2018-11-14T04:56:46.842Z,88.50
2018-11-14T04:57:46.961Z,89.60
2018-11-14T04:58:46.796Z,90.20
2018-11-14T04:59:46.771Z,92.60
2018-11-14T05:00:46.722Z,96.10
2018-11-14T05:01:46.692Z,77.10
2018-11-14T05:02:46.662Z,93.70
2018-11-14T05:03:46.631Z,82.90
2018-11-14T05:04:46.603Z,68.10
2018-11-14T05:05:46.573Z,70.10
2018-11-14T05:06:46.588Z,81.20
2018-11-14T05:07:46.513Z,112.80
2018-11-14T05:08:46.483Z,102.50
2018-11-14T05:09:46.462Z,110.20
2018-11-14T05:10:46.424Z,99.40
2018-11-14T05:11:46.394Z,86.10
2018-11-14T05:12:46.371Z,106.80
2018-11-14T05:13:46.335Z,120.70
2018-11-14T05:14:46.306Z,110.90
2018-11-14T05:15:46.277Z,105.50
2018-11-14T05:16:46.245Z,92.20
2018-11-14T05:17:46.218Z,86.00
2018-11-14T05:18:46.188Z,105.80
2018-11-14T05:19:46.159Z,116.60
2018-11-14T05:20:46.126Z,124.90
2018-11-14T05:21:46.101Z,100.00
2018-11-14T05:22:46.075Z,118.20
2018-11-14T05:23:46.039Z,95.50
2018-11-14T05:24:46.181Z,96.80
2018-11-14T05:25:45.977Z,97.80
2018-11-14T05:26:45.950Z,85.20
2018-11-14T05:27:45.919Z,105.30
2018-11-14T05:28:45.896Z,116.90
2018-11-14T05:29:45.862Z,101.60
2018-11-14T05:30:45.830Z,108.30
2018-11-14T05:31:45.856Z,128.70
2018-11-14T05:32:45.770Z,92.00
2018-11-14T05:33:45.739Z,104.50
2018-11-14T05:34:45.710Z,82.60
2018-11-14T05:35:45.680Z,115.10
2018-11-14T05:36:45.650Z,122.50
2018-11-14T05:37:45.624Z,138.80
2018-11-14T05:38:45.595Z,131.40
2018-11-14T05:39:45.654Z,113.70
2018-11-14T05:40:45.531Z,90.60
2018-11-14T05:41:45.501Z,90.90
2018-11-14T05:42:45.473Z,86.70
2018-11-14T05:43:45.443Z,88.40
2018-11-14T05:44:45.416Z,104.10
2018-11-14T05:45:45.383Z,142.50
2018-11-14T05:46:45.353Z,105.00
2018-11-14T05:47:45.347Z,107.30
2018-11-14T05:48:45.292Z,113.60
2018-11-14T05:49:45.268Z,126.80
2018-11-14T05:50:46.084Z,143.30
2018-11-14T05:51:45.203Z,154.90
2018-11-14T05:52:45.181Z,148.50
2018-11-14T05:53:45.150Z,143.80
2018-11-14T05:54:45.160Z,152.20
2018-11-14T05:55:45.084Z,166.60
2018-11-14T05:56:45.055Z,147.10
2018-11-14T05:57:45.039Z,118.30
2018-11-14T05:58:44.995Z,112.70
2018-11-14T05:59:44.969Z,174.50
2018-11-14T06:00:44.944Z,124.90
2018-11-14T06:01:44.910Z,159.10
2018-11-14T06:02:44.878Z,153.60
2018-11-14T06:03:44.848Z,146.60
2018-11-14T06:04:44.817Z,132.40
2018-11-14T06:05:44.796Z,170.50
2018-11-14T06:06:44.758Z,171.30
2018-11-14T06:07:44.729Z,159.20
2018-11-14T06:08:44.698Z,157.80
2018-11-14T06:09:44.667Z,169.60
2018-11-14T06:10:44.641Z,180.30
2018-11-14T06:11:44.609Z,177.00
2018-11-14T06:12:44.582Z,163.60
2018-11-14T06:13:44.550Z,149.70
2018-11-14T06:14:44.520Z,157.40
2018-11-14T06:15:44.489Z,161.10
2018-11-14T06:16:44.460Z,167.90
2018-11-14T06:17:44.429Z,143.90
2018-11-14T06:18:44.405Z,164.00
2018-11-14T06:19:44.371Z,172.30
2018-11-14T06:20:44.341Z,141.40
2018-11-14T06:21:44.369Z,116.50
2018-11-14T06:22:44.290Z,125.50
2018-11-14T06:23:44.267Z,111.60
2018-11-14T06:24:44.223Z,95.10
2018-11-14T06:25:44.195Z,157.80
2018-11-14T06:26:44.165Z,163.30
2018-11-14T06:27:44.134Z,180.20
2018-11-14T06:28:44.104Z,163.80
2018-11-14T06:29:44.113Z,182.00
2018-11-14T06:30:44.045Z,167.90
2018-11-14T06:31:44.015Z,175.90
2018-11-14T06:32:43.985Z,160.50
2018-11-14T06:33:43.955Z,170.40
2018-11-14T06:34:43.927Z,154.50
2018-11-14T06:35:43.896Z,148.90
2018-11-14T06:36:43.878Z,149.10
2018-11-14T06:37:43.837Z,146.00
2018-11-14T06:38:43.809Z,144.20
2018-11-14T06:39:43.777Z,123.60
2018-11-14T06:40:43.754Z,118.90
2018-11-14T06:41:43.759Z,110.90
2018-11-14T06:42:43.690Z,97.30
2018-11-14T06:43:43.663Z,114.50
2018-11-14T06:44:43.641Z,100.50
2018-11-14T06:45:43.601Z,87.80
2018-11-14T06:46:43.569Z,61.90
2018-11-14T06:47:43.540Z,56.70
2018-11-14T06:48:43.519Z,90.40
2018-11-14T06:49:43.483Z,62.90
2018-11-14T06:50:43.452Z,60.80
2018-11-14T06:51:43.436Z,65.70
2018-11-14T06:52:43.396Z,66.10
2018-11-14T06:53:43.367Z,55.50
2018-11-14T06:54:43.333Z,67.10
2018-11-14T06:55:43.307Z,78.70
2018-11-14T06:56:43.273Z,56.50
2018-11-14T06:57:43.243Z,75.00
2018-11-14T06:58:43.289Z,54.70
2018-11-14T06:59:43.286Z,58.50
2018-11-14T07:00:43.165Z,49.70
2018-11-14T07:01:43.128Z,57.80
2018-11-14T07:02:43.100Z,81.10
2018-11-14T07:03:43.064Z,102.80
2018-11-14T07:04:43.035Z,109.70
2018-11-14T07:05:43.166Z,108.70
2018-11-14T07:06:42.975Z,104.20
2018-11-14T07:07:42.945Z,88.50
2018-11-14T07:08:42.916Z,78.20
2018-11-14T07:09:42.889Z,126.20
2018-11-14T07:10:42.856Z,113.90
2018-11-14T07:11:42.825Z,111.00
2018-11-14T07:14:42.739Z,106.00
2018-11-14T07:15:42.729Z,79.40
2018-11-14T07:16:42.678Z,89.30
2018-11-14T07:17:42.652Z,47.90
2018-11-14T07:18:42.622Z,75.00
2018-11-14T07:19:42.590Z,84.00
2018-11-14T07:20:42.563Z,90.90
2018-11-14T07:21:42.531Z,69.40
2018-11-14T07:22:42.502Z,87.50
2018-11-14T07:23:42.503Z,108.00
2018-11-14T07:24:42.496Z,92.50
2018-11-14T07:25:42.414Z,83.80
2018-11-14T07:26:42.383Z,101.90
2018-11-14T07:27:42.353Z,110.60
2018-11-14T07:28:42.325Z,94.10
2018-11-14T07:29:42.296Z,103.40
2018-11-14T07:30:42.265Z,94.50
2018-11-14T07:31:42.241Z,95.70
2018-11-14T07:32:42.207Z,102.50
2018-11-14T07:33:42.176Z,103.50
2018-11-14T07:34:42.148Z,105.90
2018-11-14T07:35:42.118Z,107.70
2018-11-14T07:36:42.096Z,110.10
2018-11-14T07:37:42.062Z,106.00
2018-11-14T07:38:42.030Z,108.10
2018-11-14T07:39:42.003Z,111.40
2018-11-14T07:40:41.974Z,98.50
2018-11-14T07:41:41.942Z,109.10
2018-11-14T07:42:41.913Z,99.60
2018-11-14T07:43:42.018Z,102.00
2018-11-14T07:44:41.859Z,111.10
2018-11-14T07:45:41.825Z,100.60
2018-11-14T07:46:41.799Z,93.50
2018-11-14T07:47:41.772Z,94.50
2018-11-14T07:48:41.736Z,88.40
2018-11-14T07:49:41.711Z,90.30
2018-11-14T07:50:41.680Z,93.00
2018-11-14T07:51:41.648Z,68.30
2018-11-14T07:52:41.620Z,62.30
2018-11-14T07:53:41.591Z,63.30
2018-11-14T07:54:41.630Z,58.10
2018-11-14T07:55:41.532Z,62.50
2018-11-14T07:56:41.503Z,60.30
2018-11-14T07:57:41.473Z,62.70
2018-11-14T07:58:41.450Z,65.70
2018-11-14T07:59:41.414Z,72.20
2018-11-14T08:00:41.393Z,71.50
2018-11-14T08:01:41.356Z,78.70
2018-11-14T08:02:41.328Z,89.50
2018-11-14T08:03:41.297Z,90.00
2018-11-14T08:04:41.268Z,83.30
2018-11-14T08:05:41.238Z,89.40
2018-11-14T08:06:41.212Z,99.60
2018-11-14T08:07:41.198Z,87.80
2018-11-14T08:08:41.155Z,94.90
2018-11-14T08:09:41.129Z,95.40
2018-11-14T08:10:41.096Z,95.00
2018-11-14T08:11:41.065Z,98.00
2018-11-14T08:12:41.033Z,99.20
2018-11-14T08:13:41.005Z,109.60
2018-11-14T08:14:40.976Z,96.90
2018-11-14T08:15:40.949Z,92.30
2018-11-14T08:16:40.917Z,86.30
2018-11-14T08:17:40.889Z,76.40
2018-11-14T08:18:40.945Z,74.20
2018-11-14T08:19:40.830Z,103.10
2018-11-14T08:20:40.800Z,92.70
2018-11-14T08:21:40.771Z,101.70
2018-11-14T08:22:40.741Z,104.00
2018-11-14T08:23:40.712Z,96.00
2018-11-14T08:24:40.684Z,88.00
2018-11-14T08:25:40.657Z,87.10
2018-11-14T08:26:40.626Z,76.10
2018-11-14T08:27:40.596Z,66.20
2018-11-14T08:28:40.580Z,85.10
2018-11-14T08:29:40.542Z,79.10
2018-11-14T08:30:40.638Z,70.50
2018-11-14T08:31:40.484Z,48.20
2018-11-14T08:32:40.450Z,54.70
2018-11-14T08:33:40.426Z,61.00
2018-11-14T08:34:40.395Z,55.90
2018-11-14T08:35:40.363Z,62.40
2018-11-14T08:36:40.333Z,92.10
2018-11-14T08:37:40.303Z,94.80
2018-11-14T08:38:40.295Z,95.70
2018-11-14T08:39:40.244Z,72.60
2018-11-14T08:40:40.216Z,85.10
2018-11-14T08:41:40.187Z,89.80
2018-11-14T08:42:40.160Z,81.10
2018-11-14T08:43:40.127Z,59.90
2018-11-14T08:44:40.101Z,89.40
2018-11-14T08:45:40.069Z,67.70
2018-11-14T08:46:40.040Z,73.40
2018-11-14T08:47:40.021Z,74.30
2018-11-14T08:48:39.993Z,77.00
2018-11-14T08:49:39.950Z,67.10
2018-11-14T08:50:39.922Z,66.00
2018-11-14T08:51:39.897Z,69.90
2018-11-14T08:52:39.863Z,67.20
2018-11-14T08:53:39.835Z,73.40
2018-11-14T08:54:39.807Z,63.60
2018-11-14T08:55:39.781Z,43.50
2018-11-14T08:56:39.749Z,63.70
2018-11-14T08:57:39.718Z,55.80
2018-11-14T08:58:39.690Z,41.50
2018-11-14T08:59:39.664Z,46.90
2018-11-14T09:00:39.634Z,49.00
2018-11-14T09:01:39.614Z,41.30
2018-11-14T09:02:39.575Z,52.20
2018-11-14T09:03:39.544Z,51.30
2018-11-14T09:04:39.514Z,30.40
2018-11-14T09:05:39.487Z,45.90
2018-11-14T09:06:39.465Z,63.30
2018-11-14T09:07:39.445Z,49.30
2018-11-14T09:08:39.399Z,51.20
2018-11-14T09:09:39.379Z,51.40
2018-11-14T09:10:39.342Z,60.30
2018-11-14T09:11:39.312Z,61.40
2018-11-14T09:12:39.368Z,45.90
2018-11-14T09:13:39.255Z,47.30
2018-11-14T09:14:39.263Z,63.60
2018-11-14T09:15:39.199Z,51.30
2018-11-14T09:16:39.170Z,53.60
2018-11-14T09:17:39.143Z,43.00
2018-11-14T09:18:39.198Z,62.20
2018-11-14T09:19:39.132Z,49.00
2018-11-14T09:20:39.058Z,62.60
2018-11-14T09:21:39.032Z,64.40
2018-11-14T09:22:38.996Z,71.60
2018-11-14T09:23:39.022Z,69.20
2018-11-14T09:24:38.949Z,72.40
2018-11-14T09:25:38.917Z,64.70
2018-11-14T09:26:38.882Z,66.60
2018-11-14T09:27:38.856Z,70.70
2018-11-14T09:28:38.829Z,75.20
2018-11-14T09:29:38.796Z,74.30
2018-11-14T09:30:38.770Z,74.30
2018-11-14T09:31:38.739Z,77.20
2018-11-14T09:32:38.710Z,83.80
2018-11-14T09:33:38.691Z,76.20
2018-11-14T09:34:38.696Z,77.80
2018-11-14T09:35:38.625Z,76.90
2018-11-14T09:36:38.598Z,82.60
2018-11-14T09:37:38.573Z,78.00
2018-11-14T09:38:38.551Z,80.10
2018-11-14T09:39:38.512Z,73.10
2018-11-14T09:40:38.553Z,78.90
2018-11-14T09:41:38.455Z,48.30
2018-11-14T09:42:38.433Z,52.50
2018-11-14T09:43:38.397Z,47.30
2018-11-14T09:44:38.451Z,47.60
2018-11-14T09:45:38.557Z,55.00
2018-11-14T09:46:38.315Z,44.50
2018-11-14T09:47:38.286Z,44.00
2018-11-14T09:48:38.316Z,44.30
2018-11-14T09:49:38.233Z,45.80
2018-11-14T09:50:38.205Z,51.90
2018-11-14T09:51:38.174Z,47.20
2018-11-14T09:52:38.147Z,49.10
2018-11-14T09:53:38.128Z,44.60
2018-11-14T09:54:38.093Z,43.10
2018-11-14T09:55:38.064Z,52.10
2018-11-14T09:56:38.073Z,52.40
2018-11-14T09:57:38.011Z,52.90
2018-11-14T09:58:38.043Z,56.00
2018-11-14T09:59:37.951Z,47.30
2018-11-14T10:00:37.934Z,55.10
2018-11-14T10:01:37.896Z,52.50
2018-11-14T10:02:37.888Z,54.20
2018-11-14T10:03:37.927Z,48.20
2018-11-14T10:04:37.811Z,49.60
2018-11-14T10:05:37.872Z,49.40
2018-11-14T10:06:37.756Z,53.30
2018-11-14T10:07:37.737Z,51.00
2018-11-14T10:08:37.700Z,57.60
2018-11-14T10:09:37.679Z,51.30
2018-11-14T10:10:37.643Z,55.50
2018-11-14T10:11:37.617Z,58.80
2018-11-14T10:12:37.589Z,56.90
2018-11-14T10:13:37.560Z,51.30
2018-11-14T10:14:37.533Z,52.60
2018-11-14T10:15:37.585Z,54.70
2018-11-14T10:16:37.475Z,58.00
2018-11-14T10:17:37.448Z,57.00
2018-11-14T10:18:37.425Z,52.30
2018-11-14T10:19:37.393Z,52.70
2018-11-14T10:20:37.366Z,52.00
2018-11-14T10:21:37.364Z,49.90
2018-11-14T10:22:37.311Z,55.60
2018-11-14T10:23:37.278Z,50.90
2018-11-14T10:24:37.253Z,48.50
2018-11-14T10:25:37.229Z,49.50
2018-11-14T10:26:37.198Z,54.20
2018-11-14T10:27:37.168Z,50.80
2018-11-14T10:28:37.144Z,48.50
2018-11-14T10:29:37.112Z,47.10
2018-11-14T10:30:37.088Z,48.20
2018-11-14T10:31:37.068Z,48.50
2018-11-14T10:32:37.235Z,53.80
2018-11-14T10:33:37.206Z,51.90
2018-11-14T10:34:36.976Z,46.70
2018-11-14T10:35:36.948Z,50.00
2018-11-14T10:36:36.919Z,49.90
2018-11-14T10:37:36.893Z,51.10
2018-11-14T10:38:36.867Z,45.70
2018-11-14T10:39:36.839Z,47.90
2018-11-14T10:40:36.811Z,48.80
2018-11-14T10:41:36.788Z,48.30
2018-11-14T10:42:36.762Z,46.60
2018-11-14T10:43:36.730Z,54.30
2018-11-14T10:44:36.703Z,57.20
2018-11-14T10:45:36.677Z,53.20
2018-11-14T10:46:36.666Z,47.00
2018-11-14T10:47:36.623Z,48.00
2018-11-14T10:48:36.595Z,48.30
2018-11-14T10:49:36.568Z,47.80
2018-11-14T10:50:36.541Z,48.40
2018-11-14T10:51:36.514Z,49.20
2018-11-14T10:52:36.486Z,44.60
2018-11-14T10:53:36.466Z,53.70
2018-11-14T10:54:36.441Z,48.40
2018-11-14T10:55:36.407Z,45.80
2018-11-14T10:56:36.378Z,43.00
2018-11-14T10:57:36.351Z,46.70
2018-11-14T10:58:36.344Z,50.60
2018-11-14T10:59:36.297Z,49.20
2018-11-14T11:00:36.270Z,51.70
2018-11-14T11:01:36.243Z,50.10
2018-11-14T11:02:36.216Z,48.30
2018-11-14T11:03:36.187Z,55.20
2018-11-14T11:04:36.162Z,52.00
2018-11-14T11:05:36.138Z,53.00
2018-11-14T11:06:36.106Z,53.40
2018-11-14T11:07:36.080Z,52.70
2018-11-14T11:08:36.159Z,53.40
2018-11-14T11:09:36.026Z,56.10
2018-11-14T11:10:36.004Z,53.20
2018-11-14T11:11:35.970Z,52.50
2018-11-14T11:12:35.943Z,56.30
2018-11-14T11:13:35.978Z,60.40
2018-11-14T11:14:35.890Z,52.40
2018-11-14T11:15:35.890Z,60.70
2018-11-14T11:16:35.858Z,53.60
2018-11-14T11:17:35.846Z,53.20
2018-11-14T11:18:35.799Z,55.00
2018-11-14T11:19:35.781Z,51.50
2018-11-14T11:20:35.748Z,53.30
2018-11-14T11:21:35.709Z,54.90
2018-11-14T11:22:35.670Z,54.30
2018-11-14T11:23:35.723Z,51.70
2018-11-14T11:24:35.617Z,55.50
2018-11-14T11:25:35.589Z,57.60
2018-11-14T11:26:35.562Z,54.00
2018-11-14T11:27:35.533Z,53.80
2018-11-14T11:28:35.507Z,60.20
2018-11-14T11:29:35.483Z,58.50
2018-11-14T11:30:35.486Z,58.80
2018-11-14T11:31:35.430Z,54.70
2018-11-14T11:32:35.396Z,56.80
2018-11-14T11:33:35.368Z,56.20
2018-11-14T11:34:35.341Z,56.60
2018-11-14T11:35:35.313Z,55.00
2018-11-14T11:36:35.284Z,57.70
2018-11-14T11:37:35.258Z,51.90
2018-11-14T11:38:35.240Z,60.80
2018-11-14T11:39:35.228Z,52.70
2018-11-14T11:40:35.181Z,56.50
2018-11-14T11:41:35.164Z,53.60
2018-11-14T11:42:35.123Z,60.90
2018-11-14T11:43:35.095Z,57.80
2018-11-14T11:44:35.112Z,56.00
2018-11-14T11:45:35.041Z,56.10
2018-11-14T11:46:35.015Z,63.90
2018-11-14T11:47:34.984Z,57.30
2018-11-14T11:48:34.957Z,62.10
2018-11-14T11:49:34.930Z,68.60
2018-11-14T11:50:34.903Z,60.20
2018-11-14T11:51:34.874Z,61.80
2018-11-14T11:52:34.847Z,66.60
2018-11-14T11:53:34.820Z,60.00
2018-11-14T11:54:34.793Z,72.00
2018-11-14T11:55:34.765Z,69.50
2018-11-14T11:56:34.737Z,61.70
2018-11-14T11:57:34.767Z,57.60
2018-11-14T11:58:34.684Z,59.90
2018-11-14T11:59:34.691Z,63.70
2018-11-14T12:00:34.814Z,63.20
2018-11-14T12:01:34.610Z,61.80
2018-11-14T12:02:34.588Z,62.80
2018-11-14T12:03:34.546Z,63.70
2018-11-14T12:04:34.528Z,66.90
2018-11-14T12:05:34.515Z,63.20
2018-11-14T12:06:34.623Z,62.60
2018-11-14T12:07:34.436Z,62.10
2018-11-14T12:08:34.408Z,65.60
2018-11-14T12:09:34.380Z,66.60
2018-11-14T12:10:34.381Z,59.50
2018-11-14T12:11:34.331Z,60.30
2018-11-14T12:12:34.303Z,62.50
2018-11-14T12:13:34.285Z,66.90
2018-11-14T12:14:34.247Z,68.20
2018-11-14T12:15:34.217Z,63.70
2018-11-14T12:16:34.189Z,67.70
2018-11-14T12:17:34.169Z,66.20
2018-11-14T12:18:34.136Z,66.20
2018-11-14T12:19:34.127Z,70.70
2018-11-14T12:20:34.081Z,68.50
2018-11-14T12:21:34.057Z,66.10
2018-11-14T12:22:34.027Z,72.70
2018-11-14T12:23:34.022Z,65.60
2018-11-14T12:24:33.972Z,71.80
2018-11-14T12:25:33.945Z,72.90
2018-11-14T12:26:33.921Z,70.10
2018-11-14T12:27:33.942Z,69.20
2018-11-14T12:28:33.863Z,59.60
2018-11-14T12:29:33.836Z,71.60
2018-11-14T12:30:33.887Z,73.30
2018-11-14T12:31:33.781Z,68.20
2018-11-14T12:32:33.761Z,70.60
2018-11-14T12:33:33.730Z,67.70
2018-11-14T12:34:33.716Z,72.20
2018-11-14T12:35:33.730Z,74.40
2018-11-14T12:36:33.646Z,71.80
2018-11-14T12:37:33.620Z,71.40
2018-11-14T12:38:33.606Z,69.00
2018-11-14T12:39:33.566Z,68.00
2018-11-14T12:40:33.538Z,62.60
2018-11-14T12:41:33.512Z,67.70
2018-11-14T12:42:33.492Z,69.60
2018-11-14T12:43:33.510Z,72.30
2018-11-14T12:44:33.430Z,72.50
2018-11-14T12:45:33.403Z,72.90
2018-11-14T12:46:33.377Z,70.00
2018-11-14T12:47:33.356Z,70.90
2018-11-14T12:48:33.323Z,75.90
2018-11-14T12:49:33.302Z,62.20
2018-11-14T12:50:33.269Z,77.50
2018-11-14T12:51:33.242Z,68.60